Gobowen, United Kingdom
Current Conditions -  °F | °C
As of 12:22 PM on Thursday 30 Oct 2014 (Local Time) from EGOS Reporting Station
Light Rain Light Rain  
Wind Chill: 63°   Ceiling: 3200
Heat Index: 63°   Visibility: 4mi
Dew Point: 57°   Wind: 15mph
Humidity: 82%   Direction: 190°S
Pressure: 29.97"   Gusts: NA
Location:  52.9°N, 3.04°W
Report Text: EGOS 301222Z 19013KT 7000 -RADZ FEW014 SCT022 BKN032 17/14 Q1015 WHT BECMG 9999 NSW WHT
Loading
Personal Weather Stations






























Interactive Weather Map
Tropical Storm Tracking
New forecast layout! Learn more

10-Day Weather Forecast

Advertisements
Track Severe Weather on mobile